Latest Weather Observations for Victoria River Downs

IDD60801

Issued at 10:41 am CST Tuesday 20 October 2020 (issued every 10 minutes, with the page automatically refreshed every 10 minutes)

About weather observations | Map of weather stations | Latest weather observations for NT | Other Formats
Station Details ID: 014825 Name: VICTORIA RIVER DOWNS Lat: -16.40 Lon: 131.01 Height: 88.5 m
Data from the previous 72 hours. | See also: Recent months at Victoria River Downs
Date/Time
CST
Temp
°C
App
Temp
°C
Dew
Point
°C
Rel
Hum
%
Delta-T
°C
Wind Press
QNH
hPa
Press
MSL
hPa
Rain since
9am
mm
Dir  Spd
km/h
Gust
km/h
Spd
kts
Gust
kts
20/10:30am 34.2 34.5 17.8 37 10.6 N 13 20 7 11 1010.7 1010.1 0.0
20/10:00am 33.1 34.2 18.8 42 9.4 N 11 19 6 10 1011.2 1010.5 0.0
20/09:30am 32.2 33.7 18.8 45 8.8 NNW 9 17 5 9 1011.4 1010.7 0.0
20/09:00am 31.5 33.1 19.2 48 8.1 NNW 9 19 5 10 1011.5 1010.8 0.0
20/08:30am 30.9 32.8 18.9 48 7.8 NW 7 13 4 7 1011.3 1010.6 0.0
20/08:00am 30.0 31.7 18.4 49 7.5 N 7 11 4 6 1011.0 1010.3 0.0
20/07:30am 28.9 31.0 18.9 54 6.5 ENE 6 7 3 4 1010.4 1009.8 0.0
20/07:00am 27.3 30.4 19.4 62 5.1 E 2 6 1 3 1010.0 1009.4 0.0
20/06:30am 27.4 29.6 19.2 61 5.3 ESE 6 7 3 4 1009.7 1009.1 0.0
20/06:00am 27.6 30.3 18.6 58 5.8 NNE 2 4 1 2 1009.0 1008.4 0.0
20/05:30am 28.2 29.8 18.3 55 6.3 NNE 7 11 4 6 1008.6 1008.0 0.0
20/05:00am 28.5 30.0 17.7 52 6.9 W 6 7 3 4 1008.0 1007.4 0.0
20/04:30am 28.6 31.0 18.7 55 6.4 WSW 4 7 2 4 1007.8 1007.2 0.0
20/04:00am 28.4 30.4 18.8 56 6.2 WSW 6 7 3 4 1007.6 1007.0 0.0
20/03:30am 28.6 31.0 18.7 55 6.4 WSW 4 6 2 3 1007.6 1007.0 0.0
20/03:00am 28.8 30.9 18.9 55 6.4 WSW 6 7 3 4 1007.5 1006.9 0.0
20/02:30am 29.0 31.2 19.3 55 6.3 SW 6 9 3 5 1007.6 1007.0 0.0
20/02:00am 29.2 31.5 19.5 56 6.3 WNW 6 9 3 5 1007.7 1007.1 0.0
20/01:30am 29.3 31.7 19.6 56 6.4 NNW 6 7 3 4 1007.9 1007.3 0.0
20/01:00am 29.2 31.5 19.5 56 6.3 NNW 6 9 3 5 1008.1 1007.5 0.0
20/12:30am 29.4 31.8 19.7 56 6.4 NNW 6 9 3 5 1008.5 1007.9 0.0
20/12:00am 29.3 31.3 19.9 57 6.2 NNE 9 15 5 8 1009.0 1008.4 0.0
 
Date/Time
CST
Temp
°C
App
Temp
°C
Dew
Point
°C
Rel
Hum
%
Delta-T
°C
Wind Press
QNH
hPa
Press
MSL
hPa
Rain since
9am
mm
Dir  Spd
km/h
Gust
km/h
Spd
kts
Gust
kts
19/11:30pm 29.5 30.1 19.5 55 6.5 NNE 15 19 8 10 1009.3 1008.7 0.0
19/11:00pm 30.5 31.2 18.9 50 7.5 ENE 13 19 7 10 1009.4 1008.8 0.0
19/10:30pm 30.4 32.6 19.1 50 7.4 NE 6 7 3 4 1009.4 1008.8 0.0
19/10:00pm 30.5 32.4 18.9 50 7.5 NNW 7 11 4 6 1009.1 1008.5 0.0
19/09:30pm 30.7 31.4 18.8 49 7.7 NW 13 20 7 11 1008.8 1008.2 0.0
19/09:00pm 30.6 30.4 19.3 51 7.4 NNW 19 28 10 15 1008.6 1008.0 0.0
19/08:30pm 33.4 33.7 17.1 37 10.4 NNW 11 30 6 16 1008.6 1008.0 0.0
19/08:00pm 33.6 35.2 16.9 37 10.7 N 4 6 2 3 1007.9 1007.3 0.0
19/07:30pm 33.6 36.1 17.3 37 10.5 CALM 0 0 0 0 1007.4 1006.8 0.0
19/07:00pm 33.8 34.9 16.6 35 10.9 S 6 9 3 5 1006.9 1006.3 0.0
19/06:30pm 34.0 35.6 15.9 33 11.4 S 2 6 1 3 1006.8 1006.2 0.0
19/06:00pm 34.0 34.9 15.0 32 11.8 SSW 4 9 2 5 1006.4 1005.8 0.0
19/05:30pm 34.2 33.4 15.1 31 11.9 WSW 13 20 7 11 1006.2 1005.6 0.0
19/05:00pm 33.7 32.7 16.6 36 10.9 SW 17 32 9 17 1005.9 1005.3 0.0
19/04:30pm 32.2 30.8 18.8 45 8.8 WSW 24 35 13 19 1005.9 1005.3 0.0
19/04:00pm 34.0 31.4 16.8 35 11.0 SW 26 39 14 21 1005.7 1005.1 0.0
19/03:44pm 36.7 35.4 15.8 29 13.3 SW 17 46 9 25 1005.6 1005.0 0.0
19/03:30pm 37.7 37.4 15.5 27 14.1 SW 11 17 6 9 1005.5 1004.9 0.0
19/03:00pm 37.4 37.3 14.0 24 14.5 SSW 7 13 4 7 1005.5 1004.9 0.0
19/02:30pm 38.9 38.8 15.9 25 14.7 NW 11 19 6 10 1005.8 1005.2 0.0
19/02:00pm 37.1 37.4 15.0 27 13.9 SSW 7 15 4 8 1006.6 1006.0 0.0
19/01:30pm 37.0 37.7 15.5 28 13.6 WNW 6 9 3 5 1007.3 1006.7 0.0
19/01:00pm 37.4 38.2 15.8 27 13.8 SSE 6 9 3 5 1008.0 1007.4 0.0
19/12:30pm 37.7 38.4 16.1 28 13.8 ENE 7 15 4 8 1008.7 1008.1 0.0
19/12:00pm 36.3 37.1 15.9 29 13.0 NE 6 11 3 6 1009.1 1008.5 0.0
19/11:30am 35.6 36.4 16.4 32 12.3 NW 7 13 4 7 1009.6 1009.0 0.0
19/11:00am 35.4 36.5 16.7 33 12.0 S 6 11 3 6 1010.1 1009.5 0.0
19/10:30am 35.2 36.6 17.4 34 11.5 W 6 13 3 7 1010.5 1009.9 0.0
19/10:00am 34.1 36.1 17.8 38 10.6 WNW 4 9 2 5 1011.0 1010.3 0.0
19/09:30am 33.2 34.0 17.4 39 10.1 WNW 9 13 5 7 1011.2 1010.5 0.0
19/09:00am 32.5 34.0 17.5 40 9.6 NW 6 11 3 6 1011.4 1010.7 0.8
19/08:30am 31.9 33.2 18.5 45 8.7 W 9 15 5 8 1011.3 1010.6 0.8
19/08:00am 31.0 32.4 18.7 48 8.0 NNW 9 15 5 8 1011.2 1010.5 0.6
19/07:30am 30.1 32.0 18.5 49 7.5 NNW 6 7 3 4 1010.8 1010.2 0.6
19/07:00am 28.5 32.2 20.0 60 5.6 CALM 0 0 0 0 1010.4 1009.8 0.6
19/06:30am 28.2 31.3 19.4 59 5.7 NNE 2 4 1 2 1010.1 1009.5 0.6
19/06:00am 28.3 31.2 19.8 60 5.6 NNE 4 7 2 4 1009.6 1009.0 0.6
19/05:30am 28.5 30.2 19.4 57 5.9 NE 9 13 5 7 1009.2 1008.6 0.6
19/05:00am 27.7 31.2 19.5 61 5.3 CALM 0 0 0 0 1008.5 1007.9 0.6
19/04:30am 28.0 31.1 19.5 60 5.5 SSW 2 4 1 2 1008.3 1007.7 0.6
19/04:00am 28.0 31.5 19.5 60 5.5 CALM 0 0 0 0 1008.0 1007.4 0.6
19/03:30am 28.3 31.2 19.0 57 6.0 NNW 2 2 1 1 1008.0 1007.4 0.6
19/03:00am 28.8 32.0 18.9 55 6.4 CALM 0 4 0 2 1008.3 1007.7 0.6
19/02:30am 29.3 32.2 19.0 53 6.7 NW 2 4 1 2 1008.5 1007.9 0.6
19/02:00am 29.5 32.1 19.2 54 6.7 NNW 4 6 2 3 1008.6 1008.0 0.6
19/01:30am 29.6 31.6 18.7 52 7.1 NW 6 7 3 4 1008.8 1008.2 0.6
19/01:00am 30.0 31.5 18.1 49 7.6 NW 7 11 4 6 1008.9 1008.3 0.6
19/12:30am 30.2 31.6 18.6 49 7.5 NW 9 13 5 7 1008.9 1008.3 0.6
19/12:00am 30.4 32.4 17.8 46 8.1 NNW 4 7 2 4 1009.1 1008.5 0.6
 
Date/Time
CST
Temp
°C
App
Temp
°C
Dew
Point
°C
Rel
Hum
%
Delta-T
°C
Wind Press
QNH
hPa
Press
MSL
hPa
Rain since
9am
mm
Dir  Spd
km/h
Gust
km/h
Spd
kts
Gust
kts
18/11:30pm 30.6 32.3 18.0 47 8.1 NNE 6 9 3 5 1009.2 1008.6 0.6
18/11:00pm 30.6 33.0 18.7 49 7.7 WSW 4 6 2 3 1008.9 1008.3 0.6
18/10:30pm 30.5 31.7 18.2 47 7.9 WNW 9 13 5 7 1008.9 1008.3 0.6
18/10:00pm 30.7 31.5 16.3 42 9.0 SW 7 11 4 6 1008.6 1008.0 0.6
18/09:30pm 30.3 31.8 18.1 48 7.8 WSW 7 13 4 7 1008.3 1007.7 0.6
18/09:00pm 30.6 32.1 17.7 46 8.3 SW 6 9 3 5 1008.3 1007.7 0.6
18/08:30pm 29.8 30.6 15.9 43 8.6 NNW 6 9 3 5 1008.7 1008.1 0.6
18/08:00pm 29.7 28.5 16.1 43 8.5 E 17 30 9 16 1008.9 1008.3 0.6
18/07:30pm 31.6 30.9 15.5 37 10.0 ESE 13 24 7 13 1008.8 1008.2 0.0
18/07:00pm 31.5 30.7 15.0 36 10.2 SSE 13 20 7 11 1008.2 1007.6 0.0
18/06:30pm 32.7 32.9 15.7 36 10.6 S 9 19 5 10 1007.4 1006.8 0.0
18/06:00pm 33.4 33.1 14.5 32 11.7 SSW 9 19 5 10 1006.8 1006.2 0.0
18/05:30pm 35.3 35.8 15.1 30 12.6 SW 6 9 3 5 1006.3 1005.7 0.0
18/05:00pm 37.2 37.9 15.6 27 13.7 WNW 6 9 3 5 1006.4 1005.8 0.0
18/04:30pm 35.8 36.7 16.0 30 12.6 NW 6 11 3 6 1006.3 1005.7 0.0
18/04:00pm 34.8 35.5 16.1 32 11.9 WNW 7 9 4 5 1006.8 1006.2 0.0
18/03:30pm 33.2 33.0 15.7 35 11.0 WNW 11 15 6 8 1006.8 1006.2 0.0
18/03:00pm 32.4 32.6 15.8 36 10.4 WNW 9 15 5 8 1007.7 1007.1 0.0
18/02:30pm 32.1 32.6 18.3 44 8.9 N 13 19 7 10 1008.2 1007.6 0.0
18/02:00pm 32.7 31.9 18.1 42 9.5 N 19 35 10 19 1007.8 1007.2 0.0
18/01:30pm 36.6 36.8 15.7 29 13.3 W 9 17 5 9 1007.9 1007.3 0.0
18/01:00pm 38.1 39.4 17.5 30 13.4 WSW 7 13 4 7 1008.8 1008.2 0.0
18/12:30pm 36.8 37.4 16.9 31 12.8 NNE 9 19 5 10 1009.5 1008.9 0.0
18/12:00pm 35.8 37.5 18.4 35 11.4 NW 7 17 4 9 1010.3 1009.7 0.0
18/11:30am 34.8 36.3 18.8 39 10.5 WNW 9 15 5 8 1011.1 1010.4 0.0
18/11:00am 33.6 35.7 19.3 43 9.4 W 7 13 4 7 1011.4 1010.7 0.0
18/10:30am 32.5 34.4 19.7 46 8.5 WNW 9 20 5 11 1011.7 1011.0 0.0
18/10:00am 32.3 34.4 20.2 48 8.1 WNW 9 20 5 11 1011.8 1011.1 0.0
18/09:30am 31.7 33.1 20.3 50 7.6 W 13 20 7 11 1011.7 1011.0 0.0
18/09:14am 31.6 35.4 20.2 50 7.6 CALM 0 - 0 - - 1011.1 0.0
18/09:00am 31.2 32.3 20.5 53 7.1 W 15 22 8 12 1011.8 1011.1 0.0
18/08:30am 31.0 32.5 20.6 54 6.9 W 13 19 7 10 1012.0 1011.3 0.0
18/08:00am 30.2 32.2 20.7 56 6.3 WNW 11 19 6 10 1011.8 1011.1 0.0
18/07:30am 29.9 31.9 20.7 57 6.1 WNW 11 20 6 11 1011.4 1010.7 0.0
18/07:00am 29.0 31.1 20.2 59 5.8 NNW 9 13 5 7 1010.4 1009.8 0.0
18/06:30am 28.9 30.9 19.2 55 6.3 NNW 7 15 4 8 1009.8 1009.2 0.0
18/06:00am 28.9 30.4 18.9 54 6.5 N 9 15 5 8 1009.4 1008.8 0.0
18/05:30am 28.9 30.3 18.7 54 6.6 NNE 9 15 5 8 1008.9 1008.3 0.0
18/05:00am 29.1 30.9 18.8 53 6.7 NE 7 13 4 7 1008.7 1008.1 0.0
18/04:30am 28.7 30.3 19.1 56 6.2 ENE 9 13 5 7 1008.3 1007.7 0.0
18/04:00am 27.9 31.0 18.6 57 6.0 CALM 0 0 0 0 1007.6 1007.0 0.0
18/03:30am 28.0 31.1 18.7 57 6.0 CALM 0 0 0 0 1007.4 1006.8 0.0
18/03:00am 28.3 31.6 19.0 57 6.0 CALM 0 4 0 2 1007.2 1006.6 0.0
18/02:30am 28.3 30.8 19.0 57 6.0 WSW 4 6 2 3 1007.3 1006.7 0.0
18/02:00am 28.4 31.7 19.1 57 6.0 CALM 0 0 0 0 1007.6 1007.0 0.0
18/01:30am 28.7 32.0 19.1 56 6.2 CALM 0 0 0 0 1007.8 1007.2 0.0
18/01:00am 29.3 31.5 18.4 51 7.0 WSW 4 7 2 4 1008.2 1007.6 0.0
18/12:30am 29.4 31.1 18.5 52 7.0 NW 7 13 4 7 1008.2 1007.6 0.0
18/12:00am 28.9 29.4 19.2 55 6.3 NW 15 22 8 12 1008.5 1007.9 0.0
 
Date/Time
CST
Temp
°C
App
Temp
°C
Dew
Point
°C
Rel
Hum
%
Delta-T
°C
Wind Press
QNH
hPa
Press
MSL
hPa
Rain since
9am
mm
Dir  Spd
km/h
Gust
km/h
Spd
kts
Gust
kts
17/11:30pm 29.7 29.8 19.1 53 6.9 WNW 17 24 9 13 1008.9 1008.3 0.0
17/11:00pm 29.3 30.2 19.3 55 6.5 WSW 13 28 7 15 1009.5 1008.9 0.0
17/10:30pm 31.0 31.2 17.7 45 8.5 SW 13 30 7 16 1009.8 1009.2 0.0
17/10:00pm 32.0 33.6 17.9 43 9.1 WNW 6 11 3 6 1009.1 1008.5 0.0
17/09:30pm 32.1 32.7 17.6 42 9.3 NW 11 17 6 9 1008.4 1007.8 0.0
17/09:00pm 32.3 32.5 17.7 41 9.4 NW 13 19 7 10 1008.0 1007.4 0.0
17/08:30pm 32.6 32.1 16.8 38 10.0 NNW 15 20 8 11 1007.7 1007.1 0.0
17/08:00pm 32.7 30.6 14.8 34 11.1 N 19 30 10 16 1007.5 1006.9 0.0
17/07:30pm 33.3 32.4 14.8 32 11.5 N 13 20 7 11 1007.0 1006.4 0.0
17/07:00pm 34.2 32.9 13.6 29 12.6 NNE 13 17 7 9 1006.6 1006.0 0.0
17/06:30pm 34.6 32.6 14.0 29 12.7 NNE 17 24 9 13 1006.0 1005.4 0.0
17/06:00pm 35.2 31.3 13.4 27 13.3 NE 26 35 14 19 1005.8 1005.2 0.0
17/05:30pm 36.5 34.9 13.9 26 14.0 NNE 15 22 8 12 1005.1 1004.5 0.0
17/05:00pm 37.2 36.3 12.6 23 15.0 NE 9 15 5 8 1004.9 1004.3 0.0
17/04:30pm 37.3 37.8 12.7 23 15.0 N 2 9 1 5 1005.0 1004.4 0.0
17/04:00pm 38.5 38.5 13.7 23 15.4 NE 6 7 3 4 1005.3 1004.7 0.0
17/03:30pm 37.4 36.8 13.4 24 14.8 N 9 15 5 8 1005.5 1004.9 0.0
17/03:00pm 37.5 36.1 13.5 24 14.8 N 13 22 7 12 1006.0 1005.4 0.0
17/02:30pm 37.3 37.3 15.2 27 13.9 NNW 9 19 5 10 1006.3 1005.7 0.0
17/02:00pm 36.5 36.2 14.5 27 13.7 NW 9 22 5 12 1006.9 1006.3 0.0
17/01:30pm 37.1 36.4 15.5 27 13.7 NNE 13 20 7 11 1007.5 1006.9 0.0
17/01:00pm 36.5 36.4 16.1 29 13.0 N 11 22 6 12 1008.1 1007.5 0.0
17/12:30pm 35.8 35.7 16.0 30 12.6 NNW 11 20 6 11 1008.8 1008.2 0.0
17/12:00pm 34.4 35.0 16.7 34 11.3 NNW 9 17 5 9 1009.4 1008.8 0.0
17/11:30am 34.8 34.8 18.0 37 10.9 NNW 15 22 8 12 1009.8 1009.2 0.0
17/11:00am 33.2 33.5 17.0 38 10.3 NW 11 19 6 10 1010.2 1009.6 0.0

Other formats

Comma delimited format used in spreadsheet applications
http://www.bom.gov.au/fwo/IDD60801/IDD60801.94232.axf

JavaScript Object Notation format (JSON) in row-major order
http://www.bom.gov.au/fwo/IDD60801/IDD60801.94232.json

Data quality

Most of these data are generated automatically and are frequently updated. Quality checks on data are not normally performed. It is possible for incorrect values to appear. Refer to information at About Latest Weather Observations and please check the disclaimer before using these data.